Terminal Aerodrome Forecast
Issued by NWS

Home | Current Version | Previous Version | Text Only | Print | Product List | Glossary On
Versions: 1 2 3 4 5 6 7 8 9 10 11 12 13 14 15
000
FTUS41 KCAR 271120
TAFHUL
TAF
KHUL 271120Z 2712/2812 VRB03KT 5SM BR OVC070
     FM271500 30008KT P6SM OVC050
     FM271800 30008KT P6SM BKN050
     FM280300 30008KT P6SM SCT050=

USA.gov is the U.S. government's official web portal to all federal, state and local government web resources and services.